KMPZ

Mount Pleasant Municipal Airport

Mount Pleasant, Iowa, USA
METAR KMPZ 220955Z AUTO 21003KT 1/4SM FG BKN001 13/13 A3001 RMK AO2
Observed Flight Rules
May-22 @ 09:55 UTC (20 minutes ago) Instrument Flight Rules
Wind Visibility Clouds Conditions
210° at 3 knots 1/4 miles
  • Broken at 100' AGL
  • Fog
Temperatures Readings
Current 13°C / 55°F
Dewpoint 13°C / 55°F
Humidity 100%
Altimeter 30.01" Hg
Pressure 1016 hPa
Elevation 224
METAR KMPZ 220955Z AUTO 21003KT 1/4SM FG BKN001 13/13 A3001 RMK AO2
Observed Flight Rules
May-22 @ 09:55 UTC
(20 minutes ago)
LIFR
Wind Visibility
210° at 3 knots 1/4 miles
Clouds
  • Broken at 100' AGL
Conditions
  • Fog
Temperature Dewpoint
13°C / 55°F 13°C / 55°F
Humidity Altimeter Pressure
100% 30.01" Hg 1016 hPa